Check out our new BloomSky Weather System.

Active alerts

Houston, TX
  Details for Houston, TX River Flood Warning  +1 additional alert
Fort Bend, TX
  Details for Fort Bend, TX River Flood Warning  +2 additional alerts


Thunder radar  blitzortung!


Rain radar more information rain snow radar


Visit our other weather sites:

Template documentation
and downloads

And another site



Weather Underground History page Text

Daily Summary for January 18, 2018 Units:  Metric    English   Both
« Previous Day
Next Day »
Daily Weekly Monthly Yearly Custom
  High: Low: Average:
Temperature: -17.8 °C -6.2 °C -0.3 °C
Dew Point: -17.8 °C -8.5 °C -7.1 °C
Humidity: Humidity % 41 % 62 %
Wind Speed: 0 km/h 0 km/h 1 km/h
Wind Gust: 0 km/h - -
Wind:- - SE
Pressure: 0 hPa 1029.3 hPa -
Precipitation: 0 mm    
Historical Graphs
 
 
Tabular Data for January 18, 2018
Time Temperature Dew Point Pressure Wind Wind Speed Wind Gust Humidity Rainfall Rate (Hourly)
-17.8 °C -17.8 °C 0 hPa Calm     Humidity % 0 mm
00:03 -5.1 °C -7.1 °C 1037.5 hPa Calm   1.6 km/h 86 % 0 mm
00:08 -5.4 °C -7.4 °C 1037.5 hPa Calm     86 % 0 mm
00:13 -5.7 °C -7.7 °C 1037.5 hPa Calm     86 % 0 mm
00:18 -5.9 °C -8 °C 1037.5 hPa Calm     85 % 0 mm
00:23 -6.2 °C -8.2 °C 1037.1 hPa Calm     86 % 0 mm
00:28 -6.2 °C -8 °C 1037.1 hPa Calm     87 % 0 mm
00:33 -5.8 °C -7.5 °C 1037.1 hPa Calm     88 % 0 mm
00:38 -5.8 °C -7.6 °C 1036.8 hPa Calm     87 % 0 mm
00:44 -5.8 °C -7.5 °C 1036.8 hPa Calm     88 % 0 mm
00:49 -5.6 °C -7.3 °C 1036.8 hPa Calm     88 % 0 mm
00:54 -5.5 °C -7 °C 1036.5 hPa Calm     89 % 0 mm
00:59 -5.5 °C -7.2 °C 1036.5 hPa Calm   1.6 km/h 88 % 0 mm
01:04 -5.6 °C -7.3 °C 1036.8 hPa Calm   1.6 km/h 88 % 0 mm
01:09 -5.8 °C -7.5 °C 1036.5 hPa Calm   1.6 km/h 88 % 0 mm
01:14 -5.7 °C -7.2 °C 1036.5 hPa Calm     89 % 0 mm
01:19 -5.6 °C -7.1 °C 1036.5 hPa Calm   1.6 km/h 89 % 0 mm
01:24 -5.7 °C -7.4 °C 1036.5 hPa Calm   1.6 km/h 88 % 0 mm
01:29 -5.7 °C -7.4 °C 1036.5 hPa Calm   1.6 km/h 88 % 0 mm
01:34 -5.6 °C -7.1 °C 1036.5 hPa Calm     89 % 0 mm
01:39 -5.4 °C -6.9 °C 1036.1 hPa Calm   1.6 km/h 89 % 0 mm
01:44 -5.3 °C -7 °C 1036.1 hPa Calm   1.6 km/h 88 % 0 mm
01:49 -5.2 °C -6.9 °C 1036.1 hPa Calm   1.6 km/h 88 % 0 mm
01:54 -5.1 °C -6.9 °C 1036.5 hPa Calm   1.6 km/h 87 % 0 mm
01:59 -4.9 °C -6.9 °C 1036.5 hPa Calm   1.6 km/h 86 % 0 mm
02:04 -4.9 °C -7 °C 1036.1 hPa Calm   1.6 km/h 85 % 0 mm
02:09 -4.8 °C -7.1 °C 1036.1 hPa Calm   1.6 km/h 84 % 0 mm
02:14 -4.8 °C -7.2 °C 1036.1 hPa Calm   1.6 km/h 83 % 0 mm
02:19 -4.9 °C -7.3 °C 1036.1 hPa Calm   1.6 km/h 83 % 0 mm
02:24 -4.9 °C -7.5 °C 1036.1 hPa Calm   1.6 km/h 82 % 0 mm
02:29 -5 °C -7.6 °C 1036.1 hPa Calm     82 % 0 mm
02:34 -5.2 °C -7.9 °C 1036.1 hPa Calm     81 % 0 mm
02:39 -5.2 °C -7.8 °C 1036.1 hPa Calm     82 % 0 mm
02:44 -5.2 °C -7.8 °C 1036.1 hPa Calm     82 % 0 mm
02:49 -5.2 °C -7.8 °C 1035.8 hPa Calm     82 % 0 mm
02:54 -5.1 °C -7.7 °C 1035.8 hPa Calm   1.6 km/h 82 % 0 mm
02:59 -5.1 °C -7.7 °C 1035.8 hPa Calm   1.6 km/h 82 % 0 mm
03:04 -5.1 °C -7.7 °C 1035.8 hPa Calm   1.6 km/h 82 % 0 mm
03:09 -5 °C -7.6 °C 1035.4 hPa Calm   1.6 km/h 82 % 0 mm
03:14 -5 °C -7.6 °C 1035.4 hPa Calm   1.6 km/h 82 % 0 mm
03:19 -4.9 °C -7.7 °C 1035.4 hPa Calm   1.6 km/h 81 % 0 mm
03:24 -4.9 °C -7.7 °C 1035.4 hPa Calm   1.6 km/h 81 % 0 mm
03:29 -5 °C -7.8 °C 1035.4 hPa Calm   1.6 km/h 81 % 0 mm
03:34 -5.1 °C -7.8 °C 1035.4 hPa Calm   1.6 km/h 81 % 0 mm
03:39 -5.1 °C -7.8 °C 1035.4 hPa Calm   1.6 km/h 81 % 0 mm
03:45 -5.1 °C -7.8 °C 1035.4 hPa Calm   1.6 km/h 81 % 0 mm
03:50 -5.2 °C -7.9 °C 1035.4 hPa Calm   1.6 km/h 81 % 0 mm
03:55 -5.2 °C -8.1 °C 1035.4 hPa Calm   1.6 km/h 80 % 0 mm
04:00 -5.3 °C -8.2 °C 1035.4 hPa Calm   1.6 km/h 80 % 0 mm
04:05 -5.4 °C -8.3 °C 1035.4 hPa Calm   1.6 km/h 80 % 0 mm
04:10 -5.5 °C -8.2 °C 1035.4 hPa Calm   1.6 km/h 81 % 0 mm
04:15 -5.6 °C -8.3 °C 1035.4 hPa Calm   1.6 km/h 81 % 0 mm
04:20 -5.6 °C -8.2 °C 1035.4 hPa Calm   1.6 km/h 82 % 0 mm
04:25 -5.7 °C -8.3 °C 1035.4 hPa Calm   1.6 km/h 82 % 0 mm
04:30 -5.7 °C -8.3 °C 1035.4 hPa Calm     82 % 0 mm
04:35 -5.6 °C -8 °C 1035.4 hPa Calm     83 % 0 mm
04:40 -5.6 °C -8 °C 1035.4 hPa Calm     83 % 0 mm
04:45 -5.6 °C -8 °C 1035.4 hPa Calm     83 % 0 mm
04:50 -5.7 °C -8.1 °C 1035.1 hPa Calm     83 % 0 mm
04:55 -5.6 °C -8 °C 1035.1 hPa Calm     83 % 0 mm
05:00 -5.7 °C -8.1 °C 1035.1 hPa Calm     83 % 0 mm
05:05 -5.8 °C -8.2 °C 1035.1 hPa Calm     83 % 0 mm
05:10 -5.8 °C -8.2 °C 1035.1 hPa Calm     83 % 0 mm
05:15 -5.9 °C -8.2 °C 1035.4 hPa Calm     84 % 0 mm
05:20 -5.9 °C -8.2 °C 1035.1 hPa Calm     84 % 0 mm
05:25 -5.8 °C -7.9 °C 1035.1 hPa Calm     85 % 0 mm
05:30 -5.9 °C -8.2 °C 1035.1 hPa Calm     84 % 0 mm
05:35 -5.8 °C -7.9 °C 1035.1 hPa Calm   1.6 km/h 85 % 0 mm
05:40 -5.7 °C -7.8 °C 1035.1 hPa Calm   1.6 km/h 85 % 0 mm
05:45 -5.7 °C -7.8 °C 1035.1 hPa Calm   1.6 km/h 85 % 0 mm
05:50 -5.6 °C -7.7 °C 1035.1 hPa Calm   1.6 km/h 85 % 0 mm
05:55 -5.7 °C -7.8 °C 1035.1 hPa Calm   1.6 km/h 85 % 0 mm
06:00 -5.7 °C -7.8 °C 1035.4 hPa Calm   1.6 km/h 85 % 0 mm
06:05 -5.6 °C -7.7 °C 1035.4 hPa Calm   1.6 km/h 85 % 0 mm
06:10 -5.5 °C -7.6 °C 1035.4 hPa Calm   1.6 km/h 85 % 0 mm
06:15 -5.3 °C -7.4 °C 1035.4 hPa NNW 1.6 km/h 1.6 km/h 85 % 0 mm
06:20 -5.1 °C -7.4 °C 1035.4 hPa Calm   1.6 km/h 84 % 0 mm
06:25 -4.9 °C -7.2 °C 1035.4 hPa Calm   1.6 km/h 84 % 0 mm
06:30 -4.8 °C -7.1 °C 1035.4 hPa Calm   1.6 km/h 84 % 0 mm
06:35 -4.7 °C -7.1 °C 1035.4 hPa Calm   1.6 km/h 83 % 0 mm
06:40 -4.5 °C -6.9 °C 1035.4 hPa Calm   1.6 km/h 83 % 0 mm
06:45 -4.3 °C -6.8 °C 1035.4 hPa Calm   1.6 km/h 83 % 0 mm
06:50 -4.2 °C -6.7 °C 1035.4 hPa Calm   1.6 km/h 83 % 0 mm
06:55 -4.1 °C -6.7 °C 1035.4 hPa Calm   1.6 km/h 82 % 0 mm
07:01 -4.1 °C -6.7 °C 1035.1 hPa Calm   3.2 km/h 82 % 0 mm
07:06 -4 °C -6.8 °C 1035.4 hPa NE 1.6 km/h 3.2 km/h 81 % 0 mm
07:11 -3.9 °C -6.8 °C 1035.1 hPa Calm   3.2 km/h 80 % 0 mm
07:16 -3.8 °C -6.9 °C 1035.1 hPa Calm   4.8 km/h 79 % 0 mm
07:21 -3.7 °C -7 °C 1035.1 hPa NW 1.6 km/h 4.8 km/h 78 % 0 mm
07:26 -3.7 °C -7 °C 1034.8 hPa Calm   4.8 km/h 78 % 0 mm
07:31 -3.6 °C -7 °C 1034.8 hPa Calm   4.8 km/h 77 % 0 mm
07:36 -3.6 °C -7 °C 1034.8 hPa ENE 3.2 km/h 8 km/h 77 % 0 mm
07:41 -3.6 °C -7.2 °C 1035.1 hPa Calm   8 km/h 76 % 0 mm
07:46 -3.6 °C -7 °C 1035.1 hPa Calm   8 km/h 77 % 0 mm
07:51 -3.5 °C -6.9 °C 1035.1 hPa North 1.6 km/h 4.8 km/h 77 % 0 mm
07:56 -3.4 °C -7 °C 1035.1 hPa East 1.6 km/h 9.7 km/h 76 % 0 mm
08:01 -3.4 °C -7 °C 1035.1 hPa Calm   9.7 km/h 76 % 0 mm
08:06 -3.3 °C -7.1 °C 1035.4 hPa Calm   9.7 km/h 75 % 0 mm
08:11 -3.2 °C -7 °C 1035.4 hPa North 1.6 km/h 4.8 km/h 75 % 0 mm
08:16 -3.1 °C -6.9 °C 1035.4 hPa Calm   4.8 km/h 75 % 0 mm
08:21 -2.9 °C -6.7 °C 1035.4 hPa Calm   3.2 km/h 75 % 0 mm
08:26 -2.8 °C -6.6 °C 1035.4 hPa ESE 1.6 km/h 3.2 km/h 75 % 0 mm
08:31 -2.7 °C -6.7 °C 1035.4 hPa Calm   3.2 km/h 74 % 0 mm
08:36 -2.7 °C -6.9 °C 1035.4 hPa Calm   4.8 km/h 73 % 0 mm
08:41 -2.6 °C -6.8 °C 1035.8 hPa North 1.6 km/h 4.8 km/h 73 % 0 mm
08:46 -2.4 °C -6.6 °C 1035.4 hPa Calm   4.8 km/h 73 % 0 mm
08:51 -2.3 °C -6.7 °C 1035.4 hPa North 1.6 km/h 1.6 km/h 72 % 0 mm
08:56 -2.2 °C -6.7 °C 1035.8 hPa Calm   3.2 km/h 71 % 0 mm
09:01 -2.1 °C -7 °C 1035.8 hPa Calm   4.8 km/h 69 % 0 mm
09:06 -2.1 °C -7.2 °C 1035.8 hPa Calm   4.8 km/h 68 % 0 mm
09:11 -1.9 °C -7.2 °C 1035.8 hPa East 1.6 km/h 4.8 km/h 67 % 0 mm
09:16 -1.8 °C -7.1 °C 1035.8 hPa Calm   6.4 km/h 67 % 0 mm
09:21 -1.7 °C -7.2 °C 1035.8 hPa Calm   6.4 km/h 66 % 0 mm
09:26 -1.5 °C -7 °C 1035.8 hPa ENE 4.8 km/h 6.4 km/h 66 % 0 mm
09:31 -1.3 °C -7 °C 1036.1 hPa East 3.2 km/h 6.4 km/h 65 % 0 mm
09:36 -1 °C -6.7 °C 1036.1 hPa ENE 1.6 km/h 6.4 km/h 65 % 0 mm
09:41 -0.9 °C -7.1 °C 1036.1 hPa NNW 1.6 km/h 6.4 km/h 63 % 0 mm
09:46 -0.7 °C -6.9 °C 1036.5 hPa NE 4.8 km/h 6.4 km/h 63 % 0 mm
09:51 -0.6 °C -7.2 °C 1036.5 hPa Calm   6.4 km/h 61 % 0 mm
09:56 -0.4 °C -7 °C 1036.5 hPa Calm   6.4 km/h 61 % 0 mm
10:01 -0.2 °C -6.6 °C 1036.5 hPa Calm   6.4 km/h 62 % 0 mm
10:06 0 °C -6.8 °C 1036.5 hPa SE 1.6 km/h 4.8 km/h 60 % 0 mm
10:11 0.2 °C -6.9 °C 1036.5 hPa East 1.6 km/h 8 km/h 59 % 0 mm
10:17 0.4 °C -6.7 °C 1036.5 hPa NNE 1.6 km/h 8 km/h 59 % 0 mm
10:22 0.5 °C -7.3 °C 1036.5 hPa North 1.6 km/h 8 km/h 56 % 0 mm
10:27 0.5 °C -7 °C 1036.5 hPa SE 1.6 km/h 6.4 km/h 57 % 0 mm
10:32 0.7 °C -7.1 °C 1036.5 hPa Calm   6.4 km/h 56 % 0 mm
10:37 0.9 °C -6.9 °C 1036.5 hPa Calm   6.4 km/h 56 % 0 mm
10:42 1.1 °C -7.2 °C 1036.5 hPa South 3.2 km/h 6.4 km/h 54 % 0 mm
10:47 1.1 °C -7.4 °C 1036.1 hPa SE 1.6 km/h 6.4 km/h 53 % 0 mm
10:52 1.2 °C -7.1 °C 1036.1 hPa Calm   6.4 km/h 54 % 0 mm
10:57 1.2 °C -7.3 °C 1036.1 hPa Calm   6.4 km/h 53 % 0 mm
11:02 1.2 °C -7.3 °C 1036.1 hPa SSE 6.4 km/h 6.4 km/h 53 % 0 mm
11:07 1.2 °C -7.3 °C 1036.1 hPa East 3.2 km/h 9.7 km/h 53 % 0 mm
11:12 1.2 °C -7.3 °C 1036.1 hPa East 1.6 km/h 9.7 km/h 53 % 0 mm
11:17 1.4 °C -6.9 °C 1035.8 hPa ENE 1.6 km/h 9.7 km/h 54 % 0 mm
11:22 1.4 °C -6.9 °C 1035.4 hPa ESE 4.8 km/h 4.8 km/h 54 % 0 mm
11:27 1.6 °C -7 °C 1035.4 hPa Calm   6.4 km/h 53 % 0 mm
11:32 1.7 °C -6.6 °C 1035.4 hPa SSE 1.6 km/h 6.4 km/h 54 % 0 mm
11:37 1.8 °C -6.8 °C 1035.4 hPa SSE 3.2 km/h 8 km/h 53 % 0 mm
11:42 2.1 °C -6.5 °C 1035.1 hPa Calm   8 km/h 53 % 0 mm
11:47 2.2 °C -6.9 °C 1035.1 hPa ESE 6.4 km/h 8 km/h 51 % 0 mm
11:52 2.1 °C -7.5 °C 1035.1 hPa Calm   8 km/h 49 % 0 mm
11:57 2.2 °C -7.4 °C 1034.8 hPa Calm   8 km/h 49 % 0 mm
12:02 2.3 °C -7.6 °C 1034.8 hPa ESE 4.8 km/h 9.7 km/h 48 % 0 mm
12:07 2.3 °C -7.9 °C 1034.8 hPa South 1.6 km/h 9.7 km/h 47 % 0 mm
12:12 2.3 °C -7.9 °C 1034.8 hPa East 6.4 km/h 9.7 km/h 47 % 0 mm
12:17 2.3 °C -7.3 °C 1034.4 hPa SSE 6.4 km/h 11.3 km/h 49 % 0 mm
12:22 2.4 °C -7.2 °C 1034.1 hPa Calm   11.3 km/h 49 % 0 mm
12:27 2.6 °C -7 °C 1034.1 hPa ESE 4.8 km/h 11.3 km/h 49 % 0 mm
12:32 2.6 °C -7 °C 1034.1 hPa SE 1.6 km/h 8 km/h 49 % 0 mm
12:37 2.6 °C -7 °C 1034.1 hPa SE 3.2 km/h 6.4 km/h 49 % 0 mm
12:42 2.6 °C -7.6 °C 1033.7 hPa ESE 4.8 km/h 8 km/h 47 % 0 mm
12:47 2.6 °C -7.9 °C 1033.7 hPa Calm   8 km/h 46 % 0 mm
12:52 2.5 °C -7.7 °C 1033.4 hPa Calm   8 km/h 47 % 0 mm
12:57 2.6 °C -7.6 °C 1033.4 hPa Calm   8 km/h 47 % 0 mm
13:02 2.6 °C -7.9 °C 1033.1 hPa East 1.6 km/h 8 km/h 46 % 0 mm
13:07 2.6 °C -8.1 °C 1033.1 hPa ESE 4.8 km/h 8 km/h 45 % 0 mm
13:12 2.6 °C -7.9 °C 1033.1 hPa SE 4.8 km/h 8 km/h 46 % 0 mm
13:17 2.5 °C -8.5 °C 1033.1 hPa East 3.2 km/h 8 km/h 44 % 0 mm
13:22 2.6 °C -7.6 °C 1033.1 hPa SSE 1.6 km/h 8 km/h 47 % 0 mm
13:27 2.9 °C -7.9 °C 1032.7 hPa ESE 4.8 km/h 8 km/h 45 % 0 mm
13:32 2.8 °C -8.3 °C 1032.7 hPa East 4.8 km/h 6.4 km/h 44 % 0 mm
13:37 2.7 °C -8.3 °C 1032.4 hPa East 3.2 km/h 6.4 km/h 44 % 0 mm
13:42 2.8 °C -7.7 °C 1032.4 hPa ENE 3.2 km/h 6.4 km/h 46 % 0 mm
13:47 2.9 °C -8.5 °C 1032.4 hPa SE 1.6 km/h 8 km/h 43 % 0 mm
13:52 2.9 °C -8.5 °C 1032.4 hPa SE 3.2 km/h 8 km/h 43 % 0 mm
13:57 3.1 °C -8.3 °C 1032.1 hPa Calm   9.7 km/h 43 % 0 mm
14:02 3.2 °C -7.9 °C 1032.1 hPa SE 1.6 km/h 9.7 km/h 44 % 0 mm
14:07 3.1 °C -8.3 °C 1032.1 hPa ESE 3.2 km/h 9.7 km/h 43 % 0 mm
14:12 3.1 °C -8.3 °C 1032.1 hPa East 3.2 km/h 6.4 km/h 43 % 0 mm
14:17 2.9 °C -8.5 °C 1032.1 hPa SSW 3.2 km/h 6.4 km/h 43 % 0 mm
14:22 3 °C -8.4 °C 1032.1 hPa Calm   8 km/h 43 % 0 mm
14:27 3.1 °C -8 °C 1031.7 hPa Calm   8 km/h 44 % 0 mm
14:32 3.1 °C -8.3 °C 1031.7 hPa SE 1.6 km/h 8 km/h 43 % 0 mm
14:37 3.1 °C -8.3 °C 1031.7 hPa Calm   8 km/h 43 % 0 mm
14:42 3.1 °C -8.3 °C 1031.7 hPa SSE 1.6 km/h 8 km/h 43 % 0 mm
14:47 3.2 °C -7.9 °C 1031.7 hPa SSE 1.6 km/h 8 km/h 44 % 0 mm
14:52 3.3 °C -7.8 °C 1031.4 hPa Calm   4.8 km/h 44 % 0 mm
14:57 3.4 °C -7.7 °C 1031.4 hPa ENE 1.6 km/h 4.8 km/h 44 % 0 mm
15:02 3.4 °C -7.7 °C 1031.4 hPa Calm   4.8 km/h 44 % 0 mm
15:07 3.5 °C -7.6 °C 1031.4 hPa SSW 1.6 km/h 4.8 km/h 44 % 0 mm
15:12 3.6 °C -7.8 °C 1031 hPa South 4.8 km/h 4.8 km/h 43 % 0 mm
15:17 3.6 °C -7.5 °C 1031 hPa SE 4.8 km/h 6.4 km/h 44 % 0 mm
15:22 3.5 °C -8.2 °C 1031 hPa SE 3.2 km/h 6.4 km/h 42 % 0 mm
15:27 3.6 °C -7.8 °C 1031 hPa Calm   6.4 km/h 43 % 0 mm
15:32 3.7 °C -7.7 °C 1031 hPa SSE 6.4 km/h 6.4 km/h 43 % 0 mm
15:37 3.7 °C -8.3 °C 1031 hPa SE 4.8 km/h 6.4 km/h 41 % 0 mm
15:42 3.6 °C -8.1 °C 1031 hPa Calm   8 km/h 42 % 0 mm
15:47 3.6 °C -8.1 °C 1031 hPa East 3.2 km/h 8 km/h 42 % 0 mm
15:52 3.6 °C -7.8 °C 1031 hPa SSW 6.4 km/h 8 km/h 43 % 0 mm
15:57 3.6 °C -7.8 °C 1031 hPa SSW 1.6 km/h 6.4 km/h 43 % 0 mm
16:02 3.5 °C -7.9 °C 1030.7 hPa SE 3.2 km/h 6.4 km/h 43 % 0 mm
16:07 3.5 °C -7.6 °C 1030.7 hPa ESE 1.6 km/h 6.4 km/h 44 % 0 mm
16:12 3.5 °C -7.6 °C 1030.7 hPa SSE 4.8 km/h 4.8 km/h 44 % 0 mm
16:17 3.5 °C -7.9 °C 1030.7 hPa South 3.2 km/h 6.4 km/h 43 % 0 mm
16:22 3.5 °C -7.6 °C 1030.7 hPa ESE 3.2 km/h 6.4 km/h 44 % 0 mm
16:27 3.5 °C -7.6 °C 1030.7 hPa Calm   6.4 km/h 44 % 0 mm
16:33 3.5 °C -7.6 °C 1030.7 hPa South 1.6 km/h 4.8 km/h 44 % 0 mm
16:38 3.4 °C -7.7 °C 1030.7 hPa East 1.6 km/h 4.8 km/h 44 % 0 mm
16:43 3.4 °C -7.7 °C 1030.7 hPa SE 3.2 km/h 4.8 km/h 44 % 0 mm
16:48 3.4 °C -7.4 °C 1030.7 hPa Calm   4.8 km/h 45 % 0 mm
16:53 3.4 °C -7.1 °C 1030.7 hPa Calm   4.8 km/h 46 % 0 mm
16:58 3.4 °C -7.4 °C 1030.7 hPa Calm   4.8 km/h 45 % 0 mm
17:03 3.4 °C -7.1 °C 1030.7 hPa SE 1.6 km/h 3.2 km/h 46 % 0 mm
17:08 3.3 °C -7.5 °C 1030.7 hPa SE 1.6 km/h 3.2 km/h 45 % 0 mm
17:13 3.3 °C -7.5 °C 1030.7 hPa Calm   3.2 km/h 45 % 0 mm
17:18 3.2 °C -7.6 °C 1030.7 hPa Calm   4.8 km/h 45 % 0 mm
17:23 3.2 °C -7.3 °C 1030.7 hPa Calm   4.8 km/h 46 % 0 mm
17:28 3.2 °C -7.3 °C 1030.7 hPa SE 1.6 km/h 4.8 km/h 46 % 0 mm
17:33 3.2 °C -7.3 °C 1030.7 hPa East 3.2 km/h 4.8 km/h 46 % 0 mm
17:38 3.2 °C -7.3 °C 1030.7 hPa East 1.6 km/h 3.2 km/h 46 % 0 mm
17:43 3.2 °C -7.3 °C 1030.7 hPa Calm   4.8 km/h 46 % 0 mm
17:48 3.2 °C -7 °C 1030.7 hPa Calm   4.8 km/h 47 % 0 mm
17:53 3.2 °C -7 °C 1030.4 hPa Calm   4.8 km/h 47 % 0 mm
17:58 3.1 °C -7.1 °C 1030.4 hPa Calm   1.6 km/h 47 % 0 mm
18:03 3.1 °C -7.1 °C 1030.7 hPa Calm   1.6 km/h 47 % 0 mm
18:08 3.1 °C -6.6 °C 1030.7 hPa Calm   1.6 km/h 49 % 0 mm
18:13 3.1 °C -6.6 °C 1030.4 hPa Calm   1.6 km/h 49 % 0 mm
18:18 3.1 °C -6.6 °C 1030.4 hPa Calm   3.2 km/h 49 % 0 mm
18:23 3.1 °C -6.6 °C 1030.7 hPa Calm   3.2 km/h 49 % 0 mm
18:28 3.1 °C -6.6 °C 1030.4 hPa Calm   3.2 km/h 49 % 0 mm
18:33 3.1 °C -6.3 °C 1030.4 hPa Calm   1.6 km/h 50 % 0 mm
18:38 3.1 °C -6.3 °C 1030.4 hPa Calm   1.6 km/h 50 % 0 mm
18:43 3.1 °C -6.3 °C 1030.4 hPa East 1.6 km/h 1.6 km/h 50 % 0 mm
18:48 3.1 °C -6.3 °C 1030.4 hPa Calm   1.6 km/h 50 % 0 mm
18:53 3.1 °C -6.3 °C 1030.4 hPa Calm   1.6 km/h 50 % 0 mm
18:58 3.1 °C -6.1 °C 1030.7 hPa Calm   1.6 km/h 51 % 0 mm
19:03 3.2 °C -6 °C 1030.7 hPa Calm   1.6 km/h 51 % 0 mm
19:09 3.2 °C -6 °C 1030.7 hPa ESE 1.6 km/h 1.6 km/h 51 % 0 mm
19:14 3.2 °C -5.7 °C 1030.7 hPa Calm   3.2 km/h 52 % 0 mm
19:19 3.3 °C -5.4 °C 1030.7 hPa East 1.6 km/h 3.2 km/h 53 % 0 mm
19:24 3.3 °C -5.9 °C 1030.7 hPa Calm   3.2 km/h 51 % 0 mm
19:29 3.2 °C -5.7 °C 1030.4 hPa Calm   3.2 km/h 52 % 0 mm
19:34 3.2 °C -5.7 °C 1030.4 hPa ESE 1.6 km/h 3.2 km/h 52 % 0 mm
19:39 3.2 °C -5.7 °C 1030.4 hPa Calm   4.8 km/h 52 % 0 mm
19:44 3.2 °C -5.5 °C 1030.4 hPa East 1.6 km/h 4.8 km/h 53 % 0 mm
19:49 3.2 °C -5.5 °C 1030.4 hPa Calm   4.8 km/h 53 % 0 mm
19:54 3.2 °C -5.5 °C 1030.4 hPa ENE 3.2 km/h 3.2 km/h 53 % 0 mm
19:59 3.2 °C -5.5 °C 1030.4 hPa ENE 1.6 km/h 3.2 km/h 53 % 0 mm
20:04 3.1 °C -5.6 °C 1030.4 hPa Calm   3.2 km/h 53 % 0 mm
20:09 3.1 °C -5.6 °C 1030.4 hPa Calm   3.2 km/h 53 % 0 mm
20:14 3.1 °C -5.6 °C 1030.4 hPa Calm   3.2 km/h 53 % 0 mm
20:19 3.1 °C -5.6 °C 1030.4 hPa Calm   3.2 km/h 53 % 0 mm
20:24 3 °C -5.4 °C 1030.4 hPa Calm   3.2 km/h 54 % 0 mm
20:29 3 °C -5.4 °C 1030.4 hPa Calm   1.6 km/h 54 % 0 mm
20:34 2.9 °C -5.5 °C 1030.4 hPa SE 1.6 km/h 4.8 km/h 54 % 0 mm
20:39 2.9 °C -5.5 °C 1030.4 hPa Calm   4.8 km/h 54 % 0 mm
20:44 2.9 °C -5.5 °C 1030.4 hPa Calm   4.8 km/h 54 % 0 mm
20:49 2.9 °C -5.5 °C 1030.4 hPa Calm   3.2 km/h 54 % 0 mm
20:54 2.9 °C -5.5 °C 1030.4 hPa Calm   1.6 km/h 54 % 0 mm
20:59 2.9 °C -5.3 °C 1030.4 hPa NNE 1.6 km/h 1.6 km/h 55 % 0 mm
21:04 2.9 °C -5.5 °C 1030.4 hPa ENE 1.6 km/h 3.2 km/h 54 % 0 mm
21:09 2.9 °C -5.5 °C 1030.4 hPa Calm   3.2 km/h 54 % 0 mm
21:14 2.9 °C -5.5 °C 1030.4 hPa Calm   3.2 km/h 54 % 0 mm
21:19 2.9 °C -5.5 °C 1030.4 hPa Calm   1.6 km/h 54 % 0 mm
21:24 2.9 °C -5.5 °C 1030.4 hPa Calm   1.6 km/h 54 % 0 mm
21:29 2.9 °C -5.7 °C 1030.4 hPa SE 1.6 km/h 1.6 km/h 53 % 0 mm
21:34 2.9 °C -6 °C 1030.4 hPa Calm   3.2 km/h 52 % 0 mm
21:39 2.9 °C -6 °C 1030.4 hPa SSE 1.6 km/h 3.2 km/h 52 % 0 mm
21:44 2.9 °C -6 °C 1030.4 hPa SE 1.6 km/h 3.2 km/h 52 % 0 mm
21:50 2.9 °C -6.5 °C 1030.4 hPa Calm   3.2 km/h 50 % 0 mm
21:55 2.9 °C -6.2 °C 1030.4 hPa Calm   3.2 km/h 51 % 0 mm
21:59 2.9 °C -6.2 °C 1030.4 hPa Calm   3.2 km/h 51 % 0 mm
22:05 2.9 °C -6.2 °C 1030.7 hPa Calm   3.2 km/h 51 % 0 mm
22:10 3 °C -5.9 °C 1030.4 hPa Calm   1.6 km/h 52 % 0 mm
22:15 3 °C -5.6 °C 1030.4 hPa Calm   1.6 km/h 53 % 0 mm
22:20 3 °C -5.9 °C 1030.4 hPa SSW 1.6 km/h 1.6 km/h 52 % 0 mm
22:25 2.9 °C -5.7 °C 1030.4 hPa SW 1.6 km/h 3.2 km/h 53 % 0 mm
22:30 2.9 °C -5.7 °C 1030 hPa Calm   3.2 km/h 53 % 0 mm
22:35 2.8 °C -5.3 °C 1030 hPa SSW 1.6 km/h 3.2 km/h 55 % 0 mm
22:40 2.8 °C -5.3 °C 1030 hPa SSE 3.2 km/h 3.2 km/h 55 % 0 mm
22:45 2.8 °C -5.3 °C 1030 hPa Calm   3.2 km/h 55 % 0 mm
22:50 2.8 °C -5.3 °C 1029.7 hPa Calm   3.2 km/h 55 % 0 mm
22:55 2.9 °C -5 °C 1029.7 hPa Calm   3.2 km/h 56 % 0 mm
23:00 2.9 °C -5 °C 1029.7 hPa Calm   3.2 km/h 56 % 0 mm
23:05 2.9 °C -5 °C 1029.7 hPa SE 1.6 km/h 3.2 km/h 56 % 0 mm
23:10 3.1 °C -4.8 °C 1029.7 hPa SE 1.6 km/h 3.2 km/h 56 % 0 mm
23:15 3.1 °C -5.1 °C 1029.7 hPa SSW 3.2 km/h 3.2 km/h 55 % 0 mm
23:20 3.1 °C -5.1 °C 1029.7 hPa Calm   4.8 km/h 55 % 0 mm
23:25 3.1 °C -5.1 °C 1029.7 hPa SE 3.2 km/h 4.8 km/h 55 % 0 mm
23:30 3.1 °C -5.1 °C 1029.7 hPa SSE 4.8 km/h 4.8 km/h 55 % 0 mm
23:35 3.2 °C -4.7 °C 1029.3 hPa ESE 1.6 km/h 8 km/h 56 % 0 mm
23:40 3.2 °C -4.7 °C 1029.3 hPa SSE 4.8 km/h 8 km/h 56 % 0 mm
23:45 3.2 °C -5 °C 1029.3 hPa East 4.8 km/h 8 km/h 55 % 0 mm
23:50 3.2 °C -4.7 °C 1029.3 hPa SE 3.2 km/h 8 km/h 56 % 0 mm
23:55 3.2 °C -4.7 °C 1029.3 hPa SSE 3.2 km/h 8 km/h 56 % 0 mm
Spring, Texas: Villages of Bridgestone
Compliments of Weather Underground - 2.75 mb

Script developed by  Jim McMurry - jmcmurry@mwt.net Adapted for the template by  Wim van der Kuil - Leuven-Template.eu

You find our weather info also at:

UK Metoffice

WeatherCloud

Weather Underground

Mid-South Weather Network

AWEKAS

Citizen Weather Observer Program (CWOP)

HAMweather, WeatherForYou, PWS Weather

Equipment we use:

Weather-station
Davis Vantage Vue

Weather-program
Meteohub

Weather-server
Debian 7.9 x86 (Guest)

Provider
DreamHost

Davis Vantage Vue

Meteohub

Debian 7.9 x86 (Guest)

DreamHost